KRHV 161547Z 00000KT 10SM SKC 13/M01 A3010